createdAt,value
2023-06-11T00:00:25.822Z,42.21
2023-06-11T00:01:25.864Z,43.39
2023-06-11T00:02:25.869Z,42.20
2023-06-11T00:03:26.943Z,42.69
2023-06-11T00:04:26.197Z,44.28
2023-06-11T00:05:25.812Z,44.30
2023-06-11T00:06:25.771Z,41.75
2023-06-11T00:07:25.786Z,41.49
2023-06-11T00:08:25.773Z,41.33
2023-06-11T00:09:25.793Z,41.75
2023-06-11T00:10:25.740Z,43.29
2023-06-11T00:11:25.735Z,42.44
2023-06-11T00:12:25.742Z,42.08
2023-06-11T00:13:25.745Z,44.16
2023-06-11T00:14:25.750Z,44.09
2023-06-11T00:15:25.751Z,43.90
2023-06-11T00:16:25.841Z,42.28
2023-06-11T00:17:25.730Z,44.27
2023-06-11T00:18:25.708Z,42.76
2023-06-11T00:19:25.754Z,42.02
2023-06-11T00:20:25.730Z,44.00
2023-06-11T00:21:25.707Z,41.43
2023-06-11T00:22:25.864Z,41.50
2023-06-11T00:23:25.681Z,41.15
2023-06-11T00:24:25.695Z,41.71
2023-06-11T00:25:25.673Z,43.35
2023-06-11T00:26:25.646Z,41.82
2023-06-11T00:27:25.639Z,41.83
2023-06-11T00:28:25.780Z,42.05
2023-06-11T00:29:25.647Z,42.92
2023-06-11T00:30:25.666Z,42.83
2023-06-11T00:31:25.693Z,43.81
2023-06-11T00:32:25.632Z,45.67
2023-06-11T00:33:25.626Z,47.07
2023-06-11T00:34:25.606Z,42.08
2023-06-11T00:35:25.630Z,45.86
2023-06-11T00:36:26.580Z,43.62
2023-06-11T00:37:25.597Z,41.83
2023-06-11T00:38:25.560Z,43.30
2023-06-11T00:39:25.593Z,41.83
2023-06-11T00:40:25.628Z,42.76
2023-06-11T00:41:25.589Z,42.09
2023-06-11T00:42:25.581Z,44.17
2023-06-11T00:43:25.556Z,44.76
2023-06-11T00:44:25.541Z,42.61
2023-06-11T00:45:25.574Z,42.96
2023-06-11T00:46:25.636Z,43.15
2023-06-11T00:47:25.538Z,43.19
2023-06-11T00:48:25.545Z,43.19
2023-06-11T00:49:25.526Z,43.06
2023-06-11T00:50:25.487Z,42.13
2023-06-11T00:51:25.488Z,41.90
2023-06-11T00:52:25.493Z,41.79
2023-06-11T00:53:25.490Z,42.74
2023-06-11T00:54:25.461Z,43.83
2023-06-11T00:55:25.449Z,44.82
2023-06-11T00:56:25.470Z,46.81
2023-06-11T00:57:25.465Z,42.44
2023-06-11T00:58:25.458Z,42.79
2023-06-11T00:59:25.436Z,42.32
2023-06-11T01:00:25.420Z,43.14
2023-06-11T01:01:25.577Z,42.05
2023-06-11T01:02:25.441Z,42.22
2023-06-11T01:03:25.406Z,43.42
2023-06-11T01:04:25.455Z,42.78
2023-06-11T01:05:25.532Z,43.68
2023-06-11T01:06:25.379Z,42.27
2023-06-11T01:07:25.356Z,43.07
2023-06-11T01:08:25.410Z,42.35
2023-06-11T01:09:25.363Z,42.47
2023-06-11T01:10:25.369Z,42.35
2023-06-11T01:11:25.379Z,42.35
2023-06-11T01:12:25.355Z,43.39
2023-06-11T01:13:25.365Z,42.33
2023-06-11T01:14:25.331Z,42.34
2023-06-11T01:15:25.331Z,43.96
2023-06-11T01:16:25.372Z,43.01
2023-06-11T01:17:25.392Z,43.95
2023-06-11T01:18:25.325Z,42.55
2023-06-11T01:19:25.305Z,42.98
2023-06-11T01:20:25.290Z,42.87
2023-06-11T01:21:25.305Z,42.42
2023-06-11T01:22:25.276Z,42.79
2023-06-11T01:23:25.306Z,44.08
2023-06-11T01:24:25.305Z,43.03
2023-06-11T01:25:25.282Z,44.44
2023-06-11T01:26:25.288Z,42.24
2023-06-11T01:27:25.269Z,42.20
2023-06-11T01:28:25.228Z,42.50
2023-06-11T01:29:25.266Z,44.15
2023-06-11T01:30:26.269Z,44.58
2023-06-11T01:31:25.256Z,43.64
2023-06-11T01:32:25.341Z,42.80
2023-06-11T01:33:25.258Z,42.17
2023-06-11T01:34:25.254Z,42.39
2023-06-11T01:35:25.257Z,42.35
2023-06-11T01:36:25.189Z,43.08
2023-06-11T01:37:25.192Z,42.65
2023-06-11T01:38:25.184Z,42.91
2023-06-11T01:39:25.185Z,43.81
2023-06-11T01:40:25.210Z,43.31
2023-06-11T01:41:25.164Z,42.96
2023-06-11T01:42:25.161Z,43.62
2023-06-11T01:43:25.189Z,42.96
2023-06-11T01:44:25.214Z,43.13
2023-06-11T01:45:25.177Z,44.02
2023-06-11T01:46:25.218Z,44.91
2023-06-11T01:47:25.171Z,43.24
2023-06-11T01:48:25.109Z,43.57
2023-06-11T01:49:26.089Z,43.04
2023-06-11T01:50:25.242Z,43.24
2023-06-11T01:51:25.125Z,44.50
2023-06-11T01:52:25.131Z,43.53
2023-06-11T01:53:25.088Z,43.43
2023-06-11T01:54:25.098Z,42.86
2023-06-11T01:55:25.096Z,42.74
2023-06-11T01:56:25.091Z,42.56
2023-06-11T01:57:25.063Z,42.83
2023-06-11T01:58:25.070Z,43.63
2023-06-11T01:59:25.056Z,45.21
2023-06-11T02:00:25.039Z,43.48
2023-06-11T02:01:25.109Z,43.40
2023-06-11T02:02:25.054Z,43.03
2023-06-11T02:03:25.094Z,44.27
2023-06-11T02:04:25.061Z,44.28
2023-06-11T02:05:25.169Z,44.97
2023-06-11T02:06:25.097Z,44.83
2023-06-11T02:07:25.090Z,44.30
2023-06-11T02:08:25.044Z,45.17
2023-06-11T02:09:25.073Z,45.35
2023-06-11T02:10:25.079Z,44.68
2023-06-11T02:11:25.173Z,44.34
2023-06-11T02:12:25.894Z,44.53
2023-06-11T02:13:25.134Z,44.11
2023-06-11T02:14:25.111Z,44.31
2023-06-11T02:15:25.076Z,45.19
2023-06-11T02:16:25.073Z,45.82
2023-06-11T02:17:25.091Z,46.16
2023-06-11T02:18:25.050Z,46.28
2023-06-11T02:19:25.036Z,48.05
2023-06-11T02:20:25.109Z,45.88
2023-06-11T02:21:24.977Z,46.55
2023-06-11T02:22:24.961Z,45.38
2023-06-11T02:23:25.021Z,46.37
2023-06-11T02:24:24.999Z,45.38
2023-06-11T02:25:24.932Z,45.02
2023-06-11T02:26:24.991Z,45.67
2023-06-11T02:27:24.873Z,46.93
2023-06-11T02:28:24.905Z,46.39
2023-06-11T02:29:24.964Z,46.47
2023-06-11T02:30:24.894Z,47.77
2023-06-11T02:31:24.958Z,47.13
2023-06-11T02:32:24.962Z,47.26
2023-06-11T02:33:24.942Z,47.78
2023-06-11T02:34:24.892Z,47.43
2023-06-11T02:35:24.996Z,47.03
2023-06-11T02:36:24.851Z,46.85
2023-06-11T02:37:24.844Z,47.10
2023-06-11T02:38:24.853Z,47.95
2023-06-11T02:39:24.888Z,47.97
2023-06-11T02:40:24.817Z,48.58
2023-06-11T02:41:24.990Z,49.23
2023-06-11T02:42:24.996Z,48.24
2023-06-11T02:43:24.869Z,48.03
2023-06-11T02:44:24.804Z,48.53
2023-06-11T02:45:24.955Z,48.30
2023-06-11T02:46:24.839Z,48.71
2023-06-11T02:47:25.958Z,48.56
2023-06-11T02:48:24.818Z,49.08
2023-06-11T02:49:24.783Z,49.47
2023-06-11T02:50:24.879Z,49.53
2023-06-11T02:51:24.871Z,49.31
2023-06-11T02:52:24.780Z,49.41
2023-06-11T02:53:24.867Z,49.64
2023-06-11T02:54:24.824Z,49.56
2023-06-11T02:55:24.777Z,49.27
2023-06-11T02:56:24.877Z,49.02
2023-06-11T02:57:24.766Z,48.88
2023-06-11T02:58:24.790Z,49.22
2023-06-11T02:59:24.691Z,49.32
2023-06-11T03:00:24.690Z,49.42
2023-06-11T03:01:24.876Z,49.01
2023-06-11T03:02:24.795Z,50.26
2023-06-11T03:03:24.779Z,49.00
2023-06-11T03:04:24.775Z,48.46
2023-06-11T03:05:24.777Z,48.21
2023-06-11T03:06:24.784Z,47.96
2023-06-11T03:07:24.653Z,48.55
2023-06-11T03:08:24.707Z,47.91
2023-06-11T03:09:24.741Z,47.32
2023-06-11T03:10:24.866Z,48.97
2023-06-11T03:11:24.719Z,48.55
2023-06-11T03:12:24.718Z,47.93
2023-06-11T03:13:24.731Z,48.07
2023-06-11T03:14:24.656Z,48.98
2023-06-11T03:15:24.609Z,47.90
2023-06-11T03:16:24.828Z,47.97
2023-06-11T03:17:24.758Z,48.70
2023-06-11T03:18:24.716Z,48.02
2023-06-11T03:19:24.670Z,46.46
2023-06-11T03:20:24.616Z,45.96
2023-06-11T03:21:24.708Z,46.16
2023-06-11T03:22:24.657Z,46.01
2023-06-11T03:23:24.659Z,46.39
2023-06-11T03:24:24.800Z,46.48
2023-06-11T03:25:24.610Z,48.01
2023-06-11T03:26:24.612Z,46.50
2023-06-11T03:27:24.574Z,46.02
2023-06-11T03:28:24.540Z,46.23
2023-06-11T03:29:24.517Z,46.40
2023-06-11T03:30:24.585Z,45.41
2023-06-11T03:31:24.744Z,45.31
2023-06-11T03:32:24.618Z,46.86
2023-06-11T03:33:24.639Z,46.81
2023-06-11T03:34:24.595Z,45.73
2023-06-11T03:35:24.503Z,45.69
2023-06-11T03:36:24.556Z,48.03
2023-06-11T03:37:24.469Z,47.45
2023-06-11T03:38:24.644Z,45.85
2023-06-11T03:39:24.525Z,45.45
2023-06-11T03:40:24.498Z,46.21
2023-06-11T03:41:24.565Z,46.39
2023-06-11T03:42:24.499Z,46.66
2023-06-11T03:43:24.421Z,46.43
2023-06-11T03:44:24.576Z,46.59
2023-06-11T03:45:24.449Z,46.52
2023-06-11T03:46:24.561Z,45.43
2023-06-11T03:47:24.411Z,46.16
2023-06-11T03:48:24.387Z,46.10
2023-06-11T03:49:24.514Z,46.99
2023-06-11T03:50:24.384Z,46.11
2023-06-11T03:51:24.422Z,46.64
2023-06-11T03:52:24.378Z,45.94
2023-06-11T03:53:24.381Z,44.90
2023-06-11T03:54:24.354Z,45.10
2023-06-11T03:55:24.357Z,45.68
2023-06-11T03:56:24.404Z,45.52
2023-06-11T03:57:24.360Z,46.17
2023-06-11T03:58:24.329Z,45.81
2023-06-11T03:59:24.333Z,45.35
2023-06-11T04:00:24.325Z,46.35
2023-06-11T04:01:24.327Z,46.16
2023-06-11T04:02:24.447Z,46.90
2023-06-11T04:03:24.459Z,46.99
2023-06-11T04:04:24.328Z,44.91
2023-06-11T04:05:24.336Z,44.97
2023-06-11T04:06:24.302Z,45.20
2023-06-11T04:07:24.288Z,46.21
2023-06-11T04:08:24.280Z,45.64
2023-06-11T04:09:24.414Z,45.95
2023-06-11T04:10:24.363Z,45.03
2023-06-11T04:11:24.299Z,45.84
2023-06-11T04:12:24.260Z,49.80
2023-06-11T04:13:24.251Z,47.67
2023-06-11T04:14:24.249Z,47.19
2023-06-11T04:15:24.230Z,46.16
2023-06-11T04:16:24.273Z,46.62
2023-06-11T04:17:24.377Z,45.34
2023-06-11T04:18:24.209Z,47.06
2023-06-11T04:19:24.227Z,46.77
2023-06-11T04:20:24.217Z,46.32
2023-06-11T04:21:24.231Z,44.69
2023-06-11T04:22:24.239Z,45.35
2023-06-11T04:23:24.198Z,45.08
2023-06-11T04:24:24.260Z,45.35
2023-06-11T04:25:24.170Z,45.32
2023-06-11T04:26:24.216Z,44.58
2023-06-11T04:27:24.166Z,45.33
2023-06-11T04:28:24.159Z,46.73
2023-06-11T04:29:24.184Z,44.97
2023-06-11T04:30:24.152Z,47.08
2023-06-11T04:31:24.153Z,45.68
2023-06-11T04:32:24.190Z,45.93
2023-06-11T04:33:24.128Z,44.85
2023-06-11T04:34:24.142Z,47.65
2023-06-11T04:35:24.108Z,45.68
2023-06-11T04:36:24.113Z,45.62
2023-06-11T04:37:24.116Z,44.35
2023-06-11T04:38:24.117Z,43.51
2023-06-11T04:39:24.119Z,45.81
2023-06-11T04:40:24.079Z,46.43
2023-06-11T04:41:24.081Z,43.23
2023-06-11T04:42:24.085Z,41.91
2023-06-11T04:43:24.062Z,41.27
2023-06-11T04:44:24.076Z,40.89
2023-06-11T04:45:24.049Z,40.65
2023-06-11T04:46:24.124Z,44.33
2023-06-11T04:47:24.185Z,41.98
2023-06-11T04:48:24.075Z,44.40
2023-06-11T04:49:24.052Z,42.03
2023-06-11T04:50:24.050Z,42.28
2023-06-11T04:51:24.016Z,44.65
2023-06-11T04:52:24.004Z,43.60
2023-06-11T04:53:24.006Z,42.49
2023-06-11T04:54:24.033Z,44.49
2023-06-11T04:55:24.014Z,43.88
2023-06-11T04:56:23.975Z,42.71
2023-06-11T04:57:23.968Z,43.94
2023-06-11T04:58:23.956Z,42.38
2023-06-11T04:59:24.001Z,43.42
2023-06-11T05:00:23.951Z,43.87
2023-06-11T05:01:24.031Z,42.94
2023-06-11T05:02:24.122Z,42.95
2023-06-11T05:03:23.927Z,42.92
2023-06-11T05:04:23.937Z,42.77
2023-06-11T05:05:23.966Z,43.76
2023-06-11T05:06:24.979Z,44.78
2023-06-11T05:07:23.951Z,45.05
2023-06-11T05:08:26.566Z,43.90
2023-06-11T05:09:23.887Z,43.71
2023-06-11T05:10:23.884Z,44.67
2023-06-11T05:11:25.387Z,44.86
2023-06-11T05:12:28.353Z,44.91
2023-06-11T05:13:24.016Z,44.67
2023-06-11T05:14:23.851Z,45.54
2023-06-11T05:15:23.858Z,44.05
2023-06-11T05:16:23.912Z,44.41
2023-06-11T05:17:23.955Z,44.24
2023-06-11T05:18:23.817Z,45.90
2023-06-11T05:19:23.838Z,44.79
2023-06-11T05:20:23.816Z,45.66
2023-06-11T05:21:23.822Z,44.89
2023-06-11T05:22:23.838Z,45.21
2023-06-11T05:23:23.816Z,44.33
2023-06-11T05:24:23.850Z,43.41
2023-06-11T05:25:23.824Z,43.34
2023-06-11T05:26:23.777Z,42.93
2023-06-11T05:27:23.836Z,44.90
2023-06-11T05:28:23.778Z,43.28
2023-06-11T05:29:23.783Z,44.38
2023-06-11T05:30:23.762Z,43.96
2023-06-11T05:31:23.824Z,44.08
2023-06-11T05:32:23.879Z,45.78
2023-06-11T05:33:23.835Z,43.04
2023-06-11T05:34:23.822Z,42.22
2023-06-11T05:35:23.717Z,46.97
2023-06-11T05:36:23.718Z,45.87
2023-06-11T05:37:23.692Z,45.49
2023-06-11T05:38:23.761Z,41.18
2023-06-11T05:39:23.752Z,41.79
2023-06-11T05:40:23.732Z,41.87
2023-06-11T05:41:23.659Z,42.63
2023-06-11T05:42:23.667Z,42.61
2023-06-11T05:43:23.694Z,45.64
2023-06-11T05:44:23.683Z,42.48
2023-06-11T05:45:23.642Z,43.11
2023-06-11T05:46:23.674Z,44.54
2023-06-11T05:47:23.708Z,43.30
2023-06-11T05:48:23.645Z,43.66
2023-06-11T05:49:23.660Z,43.24
2023-06-11T05:50:23.619Z,42.35
2023-06-11T05:51:23.595Z,44.84
2023-06-11T05:52:23.579Z,45.33
2023-06-11T05:53:23.636Z,42.30
2023-06-11T05:54:23.601Z,43.19
2023-06-11T05:55:23.592Z,45.04
2023-06-11T05:56:23.560Z,47.81
2023-06-11T05:57:23.570Z,43.26
2023-06-11T05:58:23.673Z,44.90
2023-06-11T05:59:23.554Z,43.60
2023-06-11T06:00:23.555Z,46.56
2023-06-11T06:01:23.551Z,44.39
2023-06-11T06:02:23.731Z,54.54
2023-06-11T06:03:23.688Z,53.88
2023-06-11T06:04:23.556Z,52.03
2023-06-11T06:05:23.529Z,44.68
2023-06-11T06:06:23.552Z,44.61
2023-06-11T06:07:23.561Z,47.35
2023-06-11T06:08:23.497Z,43.18
2023-06-11T06:09:23.500Z,43.07
2023-06-11T06:10:23.506Z,44.23
2023-06-11T06:11:23.464Z,42.74
2023-06-11T06:12:23.479Z,41.55
2023-06-11T06:13:23.476Z,42.67
2023-06-11T06:14:23.436Z,41.97
2023-06-11T06:15:23.473Z,43.01
2023-06-11T06:16:24.694Z,41.42
2023-06-11T06:17:23.465Z,43.04
2023-06-11T06:18:23.407Z,43.01
2023-06-11T06:19:23.424Z,45.63
2023-06-11T06:20:23.415Z,43.13
2023-06-11T06:21:23.429Z,40.92
2023-06-11T06:22:23.437Z,44.65
2023-06-11T06:23:23.389Z,41.80
2023-06-11T06:24:23.482Z,43.37
2023-06-11T06:25:23.375Z,41.83
2023-06-11T06:26:23.390Z,44.55
2023-06-11T06:27:23.364Z,49.17
2023-06-11T06:28:23.367Z,43.09
2023-06-11T06:29:24.407Z,43.57
2023-06-11T06:30:23.337Z,45.56
2023-06-11T06:31:23.803Z,45.43
2023-06-11T06:32:23.400Z,47.83
2023-06-11T06:33:23.373Z,44.60
2023-06-11T06:34:23.318Z,43.85
2023-06-11T06:35:23.369Z,43.97
2023-06-11T06:36:23.823Z,47.68
2023-06-11T06:37:23.304Z,43.34
2023-06-11T06:38:23.325Z,44.15
2023-06-11T06:39:23.299Z,44.49
2023-06-11T06:40:23.303Z,44.78
2023-06-11T06:41:23.290Z,43.62
2023-06-11T06:42:23.268Z,49.13
2023-06-11T06:43:23.272Z,45.42
2023-06-11T06:44:23.270Z,44.87
2023-06-11T06:45:23.280Z,42.62
2023-06-11T06:46:23.255Z,46.69
2023-06-11T06:47:23.333Z,45.10
2023-06-11T06:48:23.362Z,44.92
2023-06-11T06:49:23.230Z,44.62
2023-06-11T06:50:23.244Z,45.91
2023-06-11T06:51:23.236Z,43.08
2023-06-11T06:52:23.225Z,45.15
2023-06-11T06:53:23.209Z,43.31
2023-06-11T06:54:23.192Z,42.62
2023-06-11T06:55:23.207Z,42.99
2023-06-11T06:56:23.260Z,45.47
2023-06-11T06:57:23.189Z,44.68
2023-06-11T06:58:23.171Z,45.55
2023-06-11T06:59:23.167Z,46.66
2023-06-11T07:00:23.160Z,45.47
2023-06-11T07:01:23.193Z,44.32
2023-06-11T07:02:23.200Z,45.26
2023-06-11T07:03:23.124Z,43.24
2023-06-11T07:04:23.127Z,44.84
2023-06-11T07:05:23.131Z,45.88
2023-06-11T07:06:23.131Z,45.80
2023-06-11T07:07:23.096Z,48.20
2023-06-11T07:08:23.096Z,45.89
2023-06-11T07:09:23.083Z,44.98
2023-06-11T07:10:23.082Z,45.32
2023-06-11T07:11:23.174Z,43.72
2023-06-11T07:12:23.111Z,44.51
2023-06-11T07:13:23.081Z,43.23
2023-06-11T07:14:23.081Z,43.80
2023-06-11T07:15:23.065Z,48.09
2023-06-11T07:16:23.084Z,45.31
2023-06-11T07:17:23.075Z,45.76
2023-06-11T07:18:23.075Z,44.86
2023-06-11T07:19:23.057Z,47.47
2023-06-11T07:20:23.080Z,45.73
2023-06-11T07:21:23.883Z,46.50
2023-06-11T07:22:24.011Z,45.35
2023-06-11T07:23:23.181Z,46.54
2023-06-11T07:24:23.091Z,46.57
2023-06-11T07:25:23.017Z,45.58
2023-06-11T07:26:23.029Z,47.80
2023-06-11T07:27:22.984Z,50.69
2023-06-11T07:28:23.004Z,45.36
2023-06-11T07:29:22.997Z,45.17
2023-06-11T07:30:22.950Z,45.35
2023-06-11T07:31:23.015Z,44.12
2023-06-11T07:32:22.992Z,45.08
2023-06-11T07:33:22.994Z,45.27
2023-06-11T07:34:22.922Z,44.45
2023-06-11T07:35:22.943Z,45.95
2023-06-11T07:36:22.932Z,46.60
2023-06-11T07:37:22.920Z,45.20
2023-06-11T07:38:22.924Z,46.98
2023-06-11T07:39:22.910Z,45.74
2023-06-11T07:40:22.900Z,45.43
2023-06-11T07:41:22.909Z,46.79
2023-06-11T07:42:22.880Z,47.43
2023-06-11T07:43:22.874Z,47.37
2023-06-11T07:44:22.871Z,47.59
2023-06-11T07:45:23.301Z,48.06
2023-06-11T07:46:23.943Z,45.77
2023-06-11T07:47:22.872Z,46.74
2023-06-11T07:48:22.854Z,46.70
2023-06-11T07:49:22.845Z,48.47
2023-06-11T07:50:22.858Z,45.69
2023-06-11T07:51:22.873Z,47.67
2023-06-11T07:52:22.847Z,47.02
2023-06-11T07:53:22.832Z,51.43
2023-06-11T07:54:25.322Z,48.18
2023-06-11T07:55:23.791Z,48.20
2023-06-11T07:56:22.817Z,49.89
2023-06-11T07:57:22.853Z,48.62
2023-06-11T07:58:22.947Z,46.73
2023-06-11T07:59:22.870Z,49.25
2023-06-11T08:00:22.850Z,49.08
2023-06-11T08:01:22.810Z,46.62
2023-06-11T08:02:22.926Z,45.28
2023-06-11T08:03:22.776Z,45.23
2023-06-11T08:04:22.756Z,47.13
2023-06-11T08:05:22.799Z,50.50
2023-06-11T08:06:22.798Z,50.86
2023-06-11T08:07:22.778Z,45.39
2023-06-11T08:08:22.743Z,47.31
2023-06-11T08:09:22.736Z,48.66
2023-06-11T08:10:22.757Z,46.65
2023-06-11T08:11:22.775Z,46.67
2023-06-11T08:12:22.811Z,45.27
2023-06-11T08:13:22.942Z,46.85
2023-06-11T08:14:22.730Z,46.88
2023-06-11T08:15:22.705Z,49.35
2023-06-11T08:16:22.825Z,50.83
2023-06-11T08:17:22.799Z,50.34
2023-06-11T08:18:22.811Z,47.85
2023-06-11T08:19:22.672Z,46.44
2023-06-11T08:20:22.707Z,48.49
2023-06-11T08:21:22.654Z,46.30
2023-06-11T08:22:22.668Z,46.89
2023-06-11T08:23:22.705Z,46.01
2023-06-11T08:24:22.831Z,48.01
2023-06-11T08:25:22.638Z,51.61
2023-06-11T08:26:22.714Z,50.01
2023-06-11T08:27:22.639Z,45.58
2023-06-11T08:28:22.616Z,46.40
2023-06-11T08:29:22.712Z,48.45
2023-06-11T08:30:22.668Z,47.10
2023-06-11T08:31:22.616Z,47.40
2023-06-11T08:32:22.779Z,48.69
2023-06-11T08:33:23.309Z,49.15
2023-06-11T08:34:22.630Z,46.55
2023-06-11T08:35:22.583Z,44.50
2023-06-11T08:36:22.619Z,48.64
2023-06-11T08:37:22.590Z,47.11
2023-06-11T08:38:22.609Z,43.20
2023-06-11T08:39:22.585Z,46.23
2023-06-11T08:40:22.674Z,43.02
2023-06-11T08:41:22.537Z,43.82
2023-06-11T08:42:22.547Z,43.84
2023-06-11T08:43:22.560Z,46.66
2023-06-11T08:44:24.780Z,46.22
2023-06-11T08:45:22.523Z,46.61
2023-06-11T08:46:22.573Z,49.50
2023-06-11T08:47:22.617Z,45.67
2023-06-11T08:48:22.575Z,49.12
2023-06-11T08:49:22.566Z,48.13
2023-06-11T08:50:22.722Z,48.86
2023-06-11T08:51:22.498Z,51.59
2023-06-11T08:52:22.471Z,51.63
2023-06-11T08:53:22.556Z,54.34
2023-06-11T08:54:22.501Z,56.54
2023-06-11T08:55:22.483Z,50.63
2023-06-11T08:56:22.477Z,50.94
2023-06-11T08:57:22.478Z,58.33
2023-06-11T08:58:22.469Z,56.80
2023-06-11T08:59:22.459Z,57.83
2023-06-11T09:00:22.459Z,53.36
2023-06-11T09:01:22.464Z,54.77
2023-06-11T09:02:22.568Z,56.75
2023-06-11T09:03:22.431Z,58.16
2023-06-11T09:04:22.480Z,58.40
2023-06-11T09:05:22.429Z,51.89
2023-06-11T09:06:22.398Z,53.89
2023-06-11T09:07:22.434Z,55.90
2023-06-11T09:08:22.408Z,50.09
2023-06-11T09:09:22.405Z,47.40
2023-06-11T09:10:22.532Z,47.36
2023-06-11T09:11:22.379Z,46.10
2023-06-11T09:12:22.388Z,45.07
2023-06-11T09:13:22.397Z,47.19
2023-06-11T09:14:22.354Z,47.37
2023-06-11T09:15:22.379Z,46.70
2023-06-11T09:16:22.391Z,49.48
2023-06-11T09:17:22.379Z,50.00
2023-06-11T09:18:23.365Z,48.11
2023-06-11T09:19:22.338Z,49.19
2023-06-11T09:20:22.325Z,47.21
2023-06-11T09:21:22.320Z,47.79
2023-06-11T09:22:22.303Z,48.50
2023-06-11T09:23:23.299Z,46.94
2023-06-11T09:24:22.718Z,48.85
2023-06-11T09:25:22.321Z,46.77
2023-06-11T09:26:22.414Z,47.45
2023-06-11T09:27:23.596Z,46.58
2023-06-11T09:28:22.435Z,48.06
2023-06-11T09:29:22.271Z,48.46
2023-06-11T09:30:22.421Z,49.00
2023-06-11T09:31:23.450Z,50.07
2023-06-11T09:33:23.305Z,52.85
2023-06-11T09:34:22.901Z,57.51
2023-06-11T09:35:22.852Z,55.00
2023-06-11T09:36:22.236Z,54.42
2023-06-11T09:37:22.218Z,57.01
2023-06-11T09:38:22.218Z,56.23
2023-06-11T09:39:22.199Z,47.68
2023-06-11T09:40:22.251Z,47.54
2023-06-11T09:41:22.197Z,48.31
2023-06-11T09:42:22.243Z,48.88
2023-06-11T09:43:22.214Z,48.42
2023-06-11T09:44:22.178Z,49.67
2023-06-11T09:45:22.349Z,50.41
2023-06-11T09:46:22.246Z,48.95
2023-06-11T09:47:22.158Z,50.43
2023-06-11T09:48:22.175Z,49.27
2023-06-11T09:49:22.140Z,48.51
2023-06-11T09:50:22.149Z,48.72
2023-06-11T09:51:22.148Z,47.72
2023-06-11T09:52:23.119Z,48.02
2023-06-11T09:53:22.184Z,48.13
2023-06-11T09:54:22.184Z,49.10
2023-06-11T09:55:22.981Z,49.55
2023-06-11T09:56:22.087Z,49.05
2023-06-11T09:57:22.101Z,47.84
2023-06-11T09:58:22.120Z,47.08
2023-06-11T09:59:22.105Z,47.36
2023-06-11T10:00:22.172Z,50.40
2023-06-11T10:01:22.082Z,50.21
2023-06-11T10:02:22.190Z,47.49
2023-06-11T10:03:22.117Z,48.63
2023-06-11T10:04:22.087Z,48.96
2023-06-11T10:05:22.071Z,48.60
2023-06-11T10:06:22.062Z,52.20
2023-06-11T10:07:22.063Z,52.84
2023-06-11T10:08:22.048Z,49.40
2023-06-11T10:09:22.040Z,50.79
2023-06-11T10:10:22.066Z,47.35
2023-06-11T10:11:22.037Z,47.89
2023-06-11T10:12:22.047Z,49.06
2023-06-11T10:13:22.166Z,47.49
2023-06-11T10:14:21.995Z,48.45
2023-06-11T10:15:21.978Z,50.01
2023-06-11T10:16:22.020Z,50.42
2023-06-11T10:17:22.097Z,48.53
2023-06-11T10:18:21.970Z,50.23
2023-06-11T10:19:22.908Z,48.38
2023-06-11T10:20:21.976Z,48.79
2023-06-11T10:21:21.951Z,49.66
2023-06-11T10:22:21.994Z,49.62
2023-06-11T10:23:21.965Z,47.87
2023-06-11T10:24:22.019Z,48.65
2023-06-11T10:25:21.939Z,48.95
2023-06-11T10:26:21.960Z,51.06
2023-06-11T10:27:22.006Z,48.68
2023-06-11T10:28:23.149Z,48.99
2023-06-11T10:29:22.923Z,52.46
2023-06-11T10:30:23.758Z,48.05
2023-06-11T10:31:23.185Z,47.91
2023-06-11T10:32:22.359Z,46.25
2023-06-11T10:33:22.923Z,47.55
2023-06-11T10:34:22.108Z,51.87
2023-06-11T10:35:21.938Z,53.22
2023-06-11T10:36:21.872Z,50.64
2023-06-11T10:37:21.863Z,53.09
2023-06-11T10:38:21.847Z,48.93
2023-06-11T10:39:21.915Z,48.80
2023-06-11T10:40:21.933Z,48.27
2023-06-11T10:41:21.823Z,49.55
2023-06-11T10:42:21.867Z,48.65
2023-06-11T10:43:21.828Z,49.23
2023-06-11T10:44:21.842Z,47.87
2023-06-11T10:45:21.804Z,48.63
2023-06-11T10:46:21.881Z,54.21
2023-06-11T10:47:21.896Z,48.17
2023-06-11T10:48:21.805Z,51.62
2023-06-11T10:49:21.791Z,51.75
2023-06-11T10:50:22.821Z,50.72
2023-06-11T10:51:21.797Z,51.25
2023-06-11T10:52:21.808Z,49.15
2023-06-11T10:53:21.795Z,49.72
2023-06-11T10:54:21.767Z,49.43
2023-06-11T10:55:21.862Z,49.61
2023-06-11T10:56:21.728Z,50.15
2023-06-11T10:57:21.781Z,49.76
2023-06-11T10:58:21.827Z,48.24
2023-06-11T10:59:21.731Z,49.79
2023-06-11T11:00:21.777Z,50.04
2023-06-11T11:01:21.759Z,49.14
2023-06-11T11:02:21.773Z,48.72
2023-06-11T11:03:21.857Z,47.54
2023-06-11T11:04:21.750Z,48.10
2023-06-11T11:05:21.742Z,49.35
2023-06-11T11:06:21.680Z,51.05
2023-06-11T11:07:21.692Z,47.72
2023-06-11T11:08:23.961Z,52.08
2023-06-11T11:09:22.686Z,52.81
2023-06-11T11:10:21.642Z,53.74
2023-06-11T11:11:21.652Z,48.63
2023-06-11T11:12:21.683Z,48.17
2023-06-11T11:13:21.631Z,48.32
2023-06-11T11:14:21.658Z,51.61
2023-06-11T11:15:21.620Z,48.71
2023-06-11T11:16:21.749Z,47.56
2023-06-11T11:17:21.691Z,48.70
2023-06-11T11:18:21.637Z,46.76
2023-06-11T11:19:21.644Z,47.89
2023-06-11T11:20:21.620Z,47.56
2023-06-11T11:21:21.595Z,47.93
2023-06-11T11:22:21.632Z,47.82
2023-06-11T11:23:21.593Z,53.30
2023-06-11T11:24:21.722Z,50.92
2023-06-11T11:25:21.551Z,49.67
2023-06-11T11:26:21.556Z,48.20
2023-06-11T11:27:21.604Z,49.21
2023-06-11T11:28:21.620Z,50.57
2023-06-11T11:29:21.547Z,48.56
2023-06-11T11:30:22.561Z,50.76
2023-06-11T11:31:21.557Z,50.84
2023-06-11T11:32:21.577Z,48.80
2023-06-11T11:33:21.552Z,48.63
2023-06-11T11:34:21.549Z,50.20
2023-06-11T11:35:21.534Z,47.73
2023-06-11T11:36:21.553Z,50.49
2023-06-11T11:37:21.501Z,50.29
2023-06-11T11:38:21.509Z,50.02
2023-06-11T11:39:21.503Z,47.80
2023-06-11T11:40:21.542Z,45.66
2023-06-11T11:41:21.476Z,47.08
2023-06-11T11:42:21.466Z,48.19
2023-06-11T11:43:21.499Z,49.55
2023-06-11T11:44:21.497Z,51.09
2023-06-11T11:45:21.478Z,51.86
2023-06-11T11:46:21.487Z,49.40
2023-06-11T11:47:21.467Z,51.77
2023-06-11T11:48:21.491Z,49.43
2023-06-11T11:49:21.435Z,48.51
2023-06-11T11:50:21.804Z,46.65
2023-06-11T11:51:21.415Z,47.00
2023-06-11T11:52:21.439Z,45.47
2023-06-11T11:53:21.487Z,48.99
2023-06-11T11:54:21.443Z,48.98
2023-06-11T11:55:21.405Z,47.11
2023-06-11T11:56:21.414Z,48.46
2023-06-11T11:57:21.434Z,46.17
2023-06-11T11:58:21.395Z,47.17
2023-06-11T11:59:21.360Z,45.91
2023-06-11T12:00:21.382Z,45.92
2023-06-11T12:01:21.360Z,44.28
2023-06-11T12:02:21.478Z,45.48
2023-06-11T12:03:21.437Z,47.46
2023-06-11T12:04:21.340Z,48.31
2023-06-11T12:05:21.349Z,55.32
2023-06-11T12:06:21.526Z,48.77
2023-06-11T12:07:21.381Z,47.51
2023-06-11T12:08:21.322Z,48.16
2023-06-11T12:09:21.315Z,46.72
2023-06-11T12:10:21.300Z,48.42
2023-06-11T12:11:21.310Z,48.70
2023-06-11T12:12:21.352Z,46.15
2023-06-11T12:13:21.278Z,45.26
2023-06-11T12:14:21.358Z,45.16
2023-06-11T12:15:21.266Z,46.66
2023-06-11T12:16:21.297Z,48.52
2023-06-11T12:17:21.289Z,44.62
2023-06-11T12:18:21.322Z,45.71
2023-06-11T12:19:24.398Z,46.06
2023-06-11T12:20:22.252Z,45.32
2023-06-11T12:21:21.260Z,46.56
2023-06-11T12:22:21.235Z,47.72
2023-06-11T12:23:21.279Z,49.56
2023-06-11T12:24:21.319Z,51.37
2023-06-11T12:25:21.229Z,51.58
2023-06-11T12:26:21.671Z,48.65
2023-06-11T12:27:21.204Z,47.37
2023-06-11T12:28:21.205Z,48.40
2023-06-11T12:29:21.266Z,48.26
2023-06-11T12:30:21.209Z,49.65
2023-06-11T12:31:21.222Z,48.82
2023-06-11T12:32:23.656Z,47.42
2023-06-11T12:33:22.198Z,48.71
2023-06-11T12:34:21.152Z,47.22
2023-06-11T12:35:21.177Z,50.33
2023-06-11T12:36:21.144Z,47.88
2023-06-11T12:37:21.170Z,49.51
2023-06-11T12:38:21.137Z,49.19
2023-06-11T12:39:21.119Z,49.16
2023-06-11T12:40:21.141Z,48.81
2023-06-11T12:41:21.101Z,50.40
2023-06-11T12:42:21.102Z,48.87
2023-06-11T12:43:21.088Z,51.37
2023-06-11T12:44:21.098Z,49.34
2023-06-11T12:45:21.105Z,47.53
2023-06-11T12:46:21.136Z,48.75
2023-06-11T12:47:21.110Z,47.90
2023-06-11T12:48:21.058Z,47.18
2023-06-11T12:49:21.071Z,48.17
2023-06-11T12:50:25.058Z,45.28
2023-06-11T12:51:23.108Z,45.33
2023-06-11T12:52:21.047Z,49.03
2023-06-11T12:53:21.066Z,46.87